Time;durP1;ratioP1;P1;durP2;ratioP2;P2;SDS_P1;SDS_P2;PMS_P1;PMS_P2;Temp;Humidity;BMP_temperature;BMP_pressure;BME280_temperature;BME280_humidity;BME280_pressure;Samples;Min_cycle;Max_cycle;Signal;HPM_P1;HPM_P2
2024/03/31 00:00:00;;;;;;;24.80;2.55;;;;;;;;;;5024608;28;20088;-83
2024/03/31 00:02:26;;;;;;;3.58;1.73;;;;;;;;;;5022127;28;20033;-83
2024/03/31 00:04:52;;;;;;;3.20;0.95;;;;;;;;;;5039147;28;20044;-83
2024/03/31 00:07:19;;;;;;;4.88;2.05;;;;;;;;;;5026724;28;20087;-83
2024/03/31 00:09:46;;;;;;;4.03;2.20;;;;;;;;;;5026310;28;20056;-83
2024/03/31 00:12:15;;;;;;;8.77;1.02;;;;;;;;;;5029681;28;20040;-83
2024/03/31 00:14:41;;;;;;;2.40;1.25;;;;;;;;;;5018964;28;20037;-84
2024/03/31 00:17:08;;;;;;;2.65;1.52;;;;;;;;;;5018520;28;20380;-84
2024/03/31 00:19:34;;;;;;;10.32;1.17;;;;;;;;;;5023846;28;20040;-84
2024/03/31 00:22:00;;;;;;;5.50;2.35;;;;;;;;;;5029148;28;20033;-83
2024/03/31 00:24:27;;;;;;;7.47;1.40;;;;;;;;;;5033359;28;20041;-83
2024/03/31 00:26:53;;;;;;;2.33;1.08;;;;;;;;;;5021780;28;20663;-83
2024/03/31 00:29:19;;;;;;;1.77;1.40;;;;;;;;;;5018635;28;20113;-84
2024/03/31 00:31:46;;;;;;;5.55;1.13;;;;;;;;;;5017802;28;20029;-83
2024/03/31 00:34:12;;;;;;;6.20;1.25;;;;;;;;;;5022223;28;20030;-83
2024/03/31 00:36:38;;;;;;;5.78;2.03;;;;;;;;;;5022876;28;20029;-83
2024/03/31 00:39:04;;;;;;;8.52;1.55;;;;;;;;;;5038955;28;20627;-83
2024/03/31 00:41:30;;;;;;;7.32;1.83;;;;;;;;;;5030535;28;20037;-84
2024/03/31 00:43:57;;;;;;;1.58;0.55;;;;;;;;;;5029292;28;20506;-83
2024/03/31 00:46:23;;;;;;;5.28;0.90;;;;;;;;;;5023141;28;20435;-84
2024/03/31 00:48:49;;;;;;;4.65;1.85;;;;;;;;;;5023831;28;20052;-83
2024/03/31 00:51:15;;;;;;;14.45;2.85;;;;;;;;;;5018512;28;20064;-83
2024/03/31 00:53:41;;;;;;;6.53;1.35;;;;;;;;;;5023252;28;20060;-83
2024/03/31 00:56:07;;;;;;;6.20;1.77;;;;;;;;;;5027734;28;20121;-83
2024/03/31 00:58:33;;;;;;;6.00;2.22;;;;;;;;;;5017874;28;20584;-84
2024/03/31 01:00:59;;;;;;;5.60;2.47;;;;;;;;;;5009058;28;20026;-84
2024/03/31 01:03:29;;;;;;;5.65;1.30;;;;;;;;;;5012661;28;20048;-84
2024/03/31 01:05:57;;;;;;;5.95;1.35;;;;;;;;;;5004525;28;20774;-84
2024/03/31 01:08:23;;;;;;;4.25;1.98;;;;;;;;;;5028694;28;20037;-83
2024/03/31 01:10:49;;;;;;;7.60;2.08;;;;;;;;;;5024952;28;20099;-84
2024/03/31 01:13:15;;;;;;;2.95;1.50;;;;;;;;;;5011248;28;20038;-84
2024/03/31 01:15:41;;;;;;;6.35;2.88;;;;;;;;;;5027704;28;20040;-84
2024/03/31 01:18:07;;;;;;;16.90;2.97;;;;;;;;;;5019920;28;20053;-84
2024/03/31 01:20:33;;;;;;;8.45;1.00;;;;;;;;;;5009195;28;20030;-84
2024/03/31 01:23:01;;;;;;;7.50;1.45;;;;;;;;;;5025021;28;20042;-84
2024/03/31 01:25:27;;;;;;;11.35;1.95;;;;;;;;;;5007372;28;20380;-84
2024/03/31 01:27:53;;;;;;;12.25;1.23;;;;;;;;;;5022797;28;20033;-84
2024/03/31 01:30:19;;;;;;;2.20;1.08;;;;;;;;;;5021532;28;20037;-83
2024/03/31 01:32:46;;;;;;;3.33;1.00;;;;;;;;;;5025214;28;20034;-83
2024/03/31 01:35:12;;;;;;;3.30;0.85;;;;;;;;;;4995092;28;20030;-83
2024/03/31 01:37:38;;;;;;;4.15;1.65;;;;;;;;;;5016387;28;20521;-84
2024/03/31 01:40:04;;;;;;;4.57;2.35;;;;;;;;;;5029895;28;20034;-84
2024/03/31 01:42:30;;;;;;;4.03;1.95;;;;;;;;;;5026550;28;20029;-83
2024/03/31 01:44:56;;;;;;;0.98;0.60;;;;;;;;;;5027232;28;20678;-83
2024/03/31 01:47:22;;;;;;;8.50;0.80;;;;;;;;;;5036614;28;20037;-83
2024/03/31 01:49:48;;;;;;;3.53;0.93;;;;;;;;;;5014812;28;20440;-83
2024/03/31 01:52:14;;;;;;;2.00;1.00;;;;;;;;;;5024495;28;20045;-84
2024/03/31 01:54:40;;;;;;;6.43;1.00;;;;;;;;;;5008614;28;20675;-83
2024/03/31 01:57:06;;;;;;;5.43;2.45;;;;;;;;;;5019438;28;20042;-84
2024/03/31 01:59:32;;;;;;;10.25;0.82;;;;;;;;;;5017928;28;20034;-83
2024/03/31 02:01:58;;;;;;;7.10;2.15;;;;;;;;;;5014054;28;20044;-84
2024/03/31 02:04:24;;;;;;;6.78;0.85;;;;;;;;;;5023051;28;20407;-84
2024/03/31 02:06:50;;;;;;;4.55;2.03;;;;;;;;;;5006485;28;20037;-84
2024/03/31 02:09:16;;;;;;;4.63;1.30;;;;;;;;;;5019980;28;20456;-83
2024/03/31 02:11:42;;;;;;;4.40;1.30;;;;;;;;;;5010988;28;20045;-84
2024/03/31 02:14:08;;;;;;;1.88;1.08;;;;;;;;;;5012704;28;20029;-84
2024/03/31 02:16:34;;;;;;;3.58;1.52;;;;;;;;;;5029805;28;20120;-83
2024/03/31 02:19:00;;;;;;;0.98;0.40;;;;;;;;;;5018560;28;20037;-84
2024/03/31 02:21:26;;;;;;;7.03;1.63;;;;;;;;;;4999534;28;20072;-83
2024/03/31 02:23:52;;;;;;;0.85;0.63;;;;;;;;;;5021438;28;20028;-83
2024/03/31 02:26:18;;;;;;;2.35;0.70;;;;;;;;;;5008783;28;20033;-83
2024/03/31 02:28:44;;;;;;;2.10;0.88;;;;;;;;;;5022263;28;20071;-83
2024/03/31 02:31:10;;;;;;;2.22;1.08;;;;;;;;;;5008850;28;20431;-84
2024/03/31 02:33:36;;;;;;;6.15;0.73;;;;;;;;;;5028277;28;20043;-84
2024/03/31 02:36:02;;;;;;;5.28;1.23;;;;;;;;;;5017789;28;20368;-84
2024/03/31 02:38:28;;;;;;;3.33;1.50;;;;;;;;;;5022684;28;20410;-84
2024/03/31 02:40:54;;;;;;;3.97;0.57;;;;;;;;;;5016506;28;20414;-84
2024/03/31 02:43:20;;;;;;;10.07;2.85;;;;;;;;;;5005506;28;20057;-85
2024/03/31 02:45:46;;;;;;;0.75;0.65;;;;;;;;;;5016956;28;20120;-84
2024/03/31 02:48:12;;;;;;;2.03;1.02;;;;;;;;;;5019454;28;20068;-83
2024/03/31 02:50:39;;;;;;;0.70;0.20;;;;;;;;;;5009144;28;20149;-83
2024/03/31 02:53:04;;;;;;;0.90;0.17;;;;;;;;;;5019321;28;20099;-83
2024/03/31 02:55:30;;;;;;;0.45;0.20;;;;;;;;;;5039890;28;20479;-83
2024/03/31 02:57:56;;;;;;;0.77;0.30;;;;;;;;;;5011602;28;20033;-83
2024/03/31 03:00:22;;;;;;;0.85;0.35;;;;;;;;;;5014786;28;20061;-83
2024/03/31 03:02:50;;;;;;;4.47;0.57;;;;;;;;;;5010085;28;20083;-85
2024/03/31 03:05:16;;;;;;;2.38;0.82;;;;;;;;;;5025797;28;20057;-83
2024/03/31 03:07:42;;;;;;;10.98;0.57;;;;;;;;;;5020563;28;20529;-82
2024/03/31 03:10:08;;;;;;;1.17;0.77;;;;;;;;;;5024244;28;20033;-83
2024/03/31 03:12:34;;;;;;;2.95;1.63;;;;;;;;;;5010606;28;20050;-84
2024/03/31 03:15:00;;;;;;;5.78;0.32;;;;;;;;;;5022561;28;20025;-83
2024/03/31 03:17:26;;;;;;;0.10;0.03;;;;;;;;;;5020820;28;20360;-84
2024/03/31 03:19:52;;;;;;;0.70;0.25;;;;;;;;;;5015286;28;20104;-83
2024/03/31 03:22:18;;;;;;;3.78;0.98;;;;;;;;;;5015014;28;20034;-83
2024/03/31 03:24:44;;;;;;;0.75;0.32;;;;;;;;;;5024751;28;20080;-84
2024/03/31 03:27:10;;;;;;;1.25;0.52;;;;;;;;;;5024203;28;20476;-83
2024/03/31 03:29:36;;;;;;;0.17;0.00;;;;;;;;;;5008980;28;20120;-83
2024/03/31 03:32:02;;;;;;;0.17;0.13;;;;;;;;;;5006841;28;20033;-84
2024/03/31 03:34:28;;;;;;;0.68;0.10;;;;;;;;;;5010274;28;20026;-84
2024/03/31 03:36:54;;;;;;;6.43;1.13;;;;;;;;;;5013181;28;20048;-83
2024/03/31 03:39:20;;;;;;;0.82;0.47;;;;;;;;;;5009934;28;20025;-83
2024/03/31 03:41:46;;;;;;;1.17;1.08;;;;;;;;;;5032591;28;20043;-83
2024/03/31 03:44:12;;;;;;;2.58;1.67;;;;;;;;;;5021523;28;20455;-84
2024/03/31 03:46:38;;;;;;;3.97;0.68;;;;;;;;;;5033169;28;20497;-83
2024/03/31 03:49:04;;;;;;;4.07;1.42;;;;;;;;;;5025260;28;20033;-83
2024/03/31 03:51:30;;;;;;;0.75;0.30;;;;;;;;;;5003850;28;20034;-83
2024/03/31 03:53:56;;;;;;;1.20;0.52;;;;;;;;;;5030113;28;20075;-84
2024/03/31 03:56:22;;;;;;;4.78;0.98;;;;;;;;;;5021191;28;20046;-84
2024/03/31 03:58:48;;;;;;;3.03;1.02;;;;;;;;;;5032054;28;20021;-83
2024/03/31 04:01:14;;;;;;;7.13;1.38;;;;;;;;;;5033157;28;20455;-84
2024/03/31 04:03:40;;;;;;;2.08;1.17;;;;;;;;;;5008985;28;20030;-84
2024/03/31 04:06:07;;;;;;;3.28;0.93;;;;;;;;;;5023483;28;20056;-85
2024/03/31 04:08:33;;;;;;;2.95;1.60;;;;;;;;;;5013924;28;20038;-84
2024/03/31 04:10:59;;;;;;;4.68;0.80;;;;;;;;;;5026205;28;20103;-84
2024/03/31 04:13:25;;;;;;;12.25;1.58;;;;;;;;;;5001131;28;20046;-84
2024/03/31 04:15:58;;;;;;;2.25;0.98;;;;;;;;;;5027326;28;20104;-84
2024/03/31 04:18:24;;;;;;;4.63;0.60;;;;;;;;;;4991872;28;20031;-84
2024/03/31 04:20:50;;;;;;;0.93;0.43;;;;;;;;;;5019145;28;20463;-85
2024/03/31 04:23:15;;;;;;;1.20;0.80;;;;;;;;;;5013507;28;20061;-85
2024/03/31 04:25:42;;;;;;;2.47;0.98;;;;;;;;;;5006791;28;20386;-85
2024/03/31 04:28:08;;;;;;;1.55;0.75;;;;;;;;;;5008706;28;20045;-84
2024/03/31 04:30:43;;;;;;;9.88;1.20;;;;;;;;;;5029535;28;20513;-84
2024/03/31 04:33:10;;;;;;;1.85;0.93;;;;;;;;;;4999783;28;20056;-85
2024/03/31 04:35:36;;;;;;;10.27;1.33;;;;;;;;;;5014094;28;20051;-84
2024/03/31 04:38:03;;;;;;;8.52;2.88;;;;;;;;;;5012952;28;20716;-84
2024/03/31 04:40:29;;;;;;;5.20;1.50;;;;;;;;;;5012089;28;20033;-84
2024/03/31 04:42:55;;;;;;;2.05;1.52;;;;;;;;;;5023685;28;20029;-84
2024/03/31 04:45:24;;;;;;;6.13;1.42;;;;;;;;;;5012344;28;20379;-84
2024/03/31 04:47:50;;;;;;;15.65;2.10;;;;;;;;;;5001357;28;20029;-84
2024/03/31 04:50:16;;;;;;;3.55;1.10;;;;;;;;;;5029831;28;20534;-85
2024/03/31 04:52:42;;;;;;;3.78;1.27;;;;;;;;;;5006648;28;20045;-84
2024/03/31 04:55:08;;;;;;;2.47;1.30;;;;;;;;;;5006223;28;20487;-84
2024/03/31 04:57:34;;;;;;;4.05;0.70;;;;;;;;;;5009779;28;20479;-84
2024/03/31 05:00:00;;;;;;;3.50;1.55;;;;;;;;;;5023232;28;20049;-84
2024/03/31 05:02:26;;;;;;;1.90;0.73;;;;;;;;;;5023888;28;20112;-84
2024/03/31 05:04:52;;;;;;;6.47;2.85;;;;;;;;;;5026969;28;20032;-85
2024/03/31 05:07:19;;;;;;;5.70;1.17;;;;;;;;;;5014927;28;20030;-84
2024/03/31 05:09:45;;;;;;;3.40;1.15;;;;;;;;;;5027099;28;20079;-84
2024/03/31 05:12:11;;;;;;;4.63;0.90;;;;;;;;;;5006395;28;20080;-83
2024/03/31 05:14:37;;;;;;;6.65;1.35;;;;;;;;;;5024456;28;20033;-84
2024/03/31 05:17:03;;;;;;;4.85;1.77;;;;;;;;;;5013161;28;20120;-84
2024/03/31 05:19:29;;;;;;;12.20;1.90;;;;;;;;;;5008461;28;20029;-85
2024/03/31 05:21:55;;;;;;;3.00;1.02;;;;;;;;;;5030765;28;20044;-84
2024/03/31 05:24:21;;;;;;;2.00;1.10;;;;;;;;;;5028581;28;20037;-84
2024/03/31 05:26:47;;;;;;;1.98;1.30;;;;;;;;;;5029367;28;20084;-84
2024/03/31 05:29:14;;;;;;;19.33;2.85;;;;;;;;;;5004550;28;20517;-84
2024/03/31 05:31:40;;;;;;;2.30;1.25;;;;;;;;;;5026067;28;20547;-84
2024/03/31 05:34:06;;;;;;;10.02;3.33;;;;;;;;;;5029168;28;20122;-83
2024/03/31 05:36:33;;;;;;;4.10;2.05;;;;;;;;;;5019077;28;20045;-84
2024/03/31 05:38:59;;;;;;;5.85;1.33;;;;;;;;;;5017926;28;20025;-84
2024/03/31 05:41:25;;;;;;;13.05;0.80;;;;;;;;;;5031531;28;20037;-84
2024/03/31 05:43:51;;;;;;;2.30;0.65;;;;;;;;;;5007325;28;20558;-84
2024/03/31 05:46:17;;;;;;;2.70;1.63;;;;;;;;;;5005838;28;20197;-84
2024/03/31 05:48:43;;;;;;;2.90;0.77;;;;;;;;;;5028464;28;20080;-83
2024/03/31 05:51:09;;;;;;;10.63;1.52;;;;;;;;;;5004379;28;20031;-84
2024/03/31 05:53:35;;;;;;;2.65;1.00;;;;;;;;;;5020761;28;20096;-84
2024/03/31 05:56:01;;;;;;;5.35;1.58;;;;;;;;;;5018942;28;20041;-85
2024/03/31 05:58:27;;;;;;;2.58;0.82;;;;;;;;;;5023279;28;20044;-84
2024/03/31 06:00:54;;;;;;;4.18;1.30;;;;;;;;;;5024801;28;20034;-84
2024/03/31 06:03:20;;;;;;;6.75;3.35;;;;;;;;;;5020956;28;20069;-84
2024/03/31 06:05:47;;;;;;;5.55;1.90;;;;;;;;;;5021654;28;20053;-84
2024/03/31 06:08:13;;;;;;;2.08;1.02;;;;;;;;;;5026039;28;20041;-84
2024/03/31 06:10:39;;;;;;;7.93;1.85;;;;;;;;;;5025337;28;20482;-85
2024/03/31 06:13:05;;;;;;;10.00;3.28;;;;;;;;;;5020240;28;20088;-85
2024/03/31 06:15:31;;;;;;;7.93;2.88;;;;;;;;;;5027965;28;20032;-85
2024/03/31 06:17:57;;;;;;;1.85;1.27;;;;;;;;;;5023352;28;20025;-86
2024/03/31 06:20:23;;;;;;;1.55;1.08;;;;;;;;;;5018103;28;20121;-85
2024/03/31 06:22:49;;;;;;;20.10;2.10;;;;;;;;;;5019061;28;20049;-86
2024/03/31 06:25:15;;;;;;;0.68;0.30;;;;;;;;;;5019529;28;20033;-84
2024/03/31 06:27:41;;;;;;;16.60;2.78;;;;;;;;;;5025447;28;20482;-85
2024/03/31 06:30:08;;;;;;;4.25;1.13;;;;;;;;;;5019939;28;20030;-85
2024/03/31 06:32:34;;;;;;;2.28;1.02;;;;;;;;;;5023350;28;20116;-86
2024/03/31 06:35:00;;;;;;;5.20;0.77;;;;;;;;;;5029751;28;20029;-85
2024/03/31 06:37:26;;;;;;;2.70;0.82;;;;;;;;;;5021316;28;21702;-85
2024/03/31 06:39:52;;;;;;;22.30;1.30;;;;;;;;;;5028172;28;20067;-85
2024/03/31 06:42:18;;;;;;;3.08;0.90;;;;;;;;;;5027737;28;20065;-86
2024/03/31 06:44:44;;;;;;;14.40;2.88;;;;;;;;;;5034566;28;20065;-85
2024/03/31 06:47:10;;;;;;;5.25;1.70;;;;;;;;;;5023602;28;20041;-84
2024/03/31 06:49:36;;;;;;;6.55;2.03;;;;;;;;;;5024833;28;20064;-83
2024/03/31 06:52:03;;;;;;;2.00;1.10;;;;;;;;;;5024143;28;20068;-84
2024/03/31 06:54:30;;;;;;;2.15;0.70;;;;;;;;;;5041413;28;20111;-84
2024/03/31 06:56:56;;;;;;;4.88;1.73;;;;;;;;;;5019955;28;20381;-86
2024/03/31 06:59:22;;;;;;;4.78;1.92;;;;;;;;;;5018996;28;20028;-84
2024/03/31 07:01:48;;;;;;;6.93;0.95;;;;;;;;;;5022655;28;20140;-87
2024/03/31 07:04:15;;;;;;;2.40;1.38;;;;;;;;;;5034979;28;20120;-87
2024/03/31 07:06:41;;;;;;;13.27;1.42;;;;;;;;;;5034094;28;20033;-87
2024/03/31 07:09:07;;;;;;;2.55;0.80;;;;;;;;;;5038753;28;20032;-88
2024/03/31 07:11:33;;;;;;;5.60;1.25;;;;;;;;;;5031360;28;20789;-88
2024/03/31 07:13:59;;;;;;;5.07;1.58;;;;;;;;;;5018721;28;20487;-86
2024/03/31 07:16:25;;;;;;;6.60;1.65;;;;;;;;;;5032395;28;20044;-88
2024/03/31 07:18:51;;;;;;;7.88;1.10;;;;;;;;;;5028971;28;20024;-88
2024/03/31 07:21:17;;;;;;;21.23;1.83;;;;;;;;;;5044586;28;20030;-89
2024/03/31 07:23:47;;;;;;;5.60;0.65;;;;;;;;;;5032644;28;20487;-88
2024/03/31 07:26:14;;;;;;;2.17;1.55;;;;;;;;;;5007911;28;20141;-87
2024/03/31 07:28:40;;;;;;;5.47;0.95;;;;;;;;;;5017084;28;20136;-88
2024/03/31 07:31:06;;;;;;;2.03;1.40;;;;;;;;;;5016206;28;20116;-88
2024/03/31 07:33:32;;;;;;;1.13;0.40;;;;;;;;;;5018737;28;20140;-87
2024/03/31 07:35:58;;;;;;;3.55;1.80;;;;;;;;;;5026167;28;20042;-86
2024/03/31 07:38:25;;;;;;;10.05;2.08;;;;;;;;;;5038636;28;20026;-87
2024/03/31 07:40:51;;;;;;;8.48;1.20;;;;;;;;;;5023316;28;20038;-87
2024/03/31 07:43:23;;;;;;;4.18;1.05;;;;;;;;;;5028147;28;20505;-87
2024/03/31 07:45:49;;;;;;;5.53;3.17;;;;;;;;;;5030746;28;20060;-86
2024/03/31 07:48:15;;;;;;;3.15;1.42;;;;;;;;;;5029901;28;20045;-86
2024/03/31 07:50:42;;;;;;;19.38;1.25;;;;;;;;;;5047377;28;20041;-86
2024/03/31 07:53:08;;;;;;;1.02;0.52;;;;;;;;;;5022805;28;20061;-86
2024/03/31 07:55:34;;;;;;;4.35;1.15;;;;;;;;;;5029282;28;20073;-86
2024/03/31 07:58:00;;;;;;;2.85;0.40;;;;;;;;;;5030561;28;20029;-86
2024/03/31 08:00:26;;;;;;;9.07;1.83;;;;;;;;;;5021214;28;20025;-86
2024/03/31 08:02:52;;;;;;;1.65;1.00;;;;;;;;;;5032577;28;20038;-86
2024/03/31 08:05:19;;;;;;;3.17;0.70;;;;;;;;;;5028668;28;20067;-86
2024/03/31 08:07:45;;;;;;;3.50;1.00;;;;;;;;;;5025960;28;20080;-86
2024/03/31 08:10:11;;;;;;;2.17;1.65;;;;;;;;;;5015383;28;20934;-86
2024/03/31 08:12:37;;;;;;;2.50;1.45;;;;;;;;;;5021230;28;20137;-86
2024/03/31 08:15:03;;;;;;;1.35;0.70;;;;;;;;;;5035885;28;20118;-83
2024/03/31 08:17:29;;;;;;;1.25;0.32;;;;;;;;;;5055083;28;20036;-84
2024/03/31 08:19:55;;;;;;;8.40;1.98;;;;;;;;;;5035744;28;20025;-84
2024/03/31 08:22:21;;;;;;;2.65;1.55;;;;;;;;;;5037051;28;20057;-84
2024/03/31 08:24:48;;;;;;;9.13;1.35;;;;;;;;;;5035349;28;20772;-85
2024/03/31 08:27:14;;;;;;;3.17;1.05;;;;;;;;;;5020584;28;20123;-84
2024/03/31 08:29:40;;;;;;;3.60;1.83;;;;;;;;;;5031835;28;20113;-85
2024/03/31 08:32:06;;;;;;;4.22;1.25;;;;;;;;;;5033103;28;20029;-85
2024/03/31 08:34:33;;;;;;;5.57;0.52;;;;;;;;;;5040744;28;20033;-83
2024/03/31 08:36:59;;;;;;;3.63;1.92;;;;;;;;;;5028186;28;20022;-84
2024/03/31 08:39:25;;;;;;;4.00;2.45;;;;;;;;;;5033468;28;20076;-86
2024/03/31 08:42:00;;;;;;;2.03;1.20;;;;;;;;;;5030715;28;20034;-88
2024/03/31 08:44:26;;;;;;;2.40;1.48;;;;;;;;;;5028023;28;20368;-86
2024/03/31 08:46:53;;;;;;;9.18;1.92;;;;;;;;;;5035932;28;20025;-88
2024/03/31 08:49:19;;;;;;;6.93;1.70;;;;;;;;;;5031382;28;20029;-83
2024/03/31 08:51:45;;;;;;;2.80;1.48;;;;;;;;;;5031382;28;20048;-85
2024/03/31 08:54:12;;;;;;;16.45;1.23;;;;;;;;;;5026428;28;20091;-86
2024/03/31 08:56:38;;;;;;;6.05;0.95;;;;;;;;;;5020293;28;20052;-83
2024/03/31 08:59:04;;;;;;;2.08;0.55;;;;;;;;;;5028686;28;20025;-86
2024/03/31 09:01:33;;;;;;;3.05;0.82;;;;;;;;;;5029443;28;20030;-85
2024/03/31 09:03:59;;;;;;;2.53;1.35;;;;;;;;;;5022775;28;20026;-87
2024/03/31 09:06:25;;;;;;;2.63;1.27;;;;;;;;;;5034467;28;20043;-87
2024/03/31 09:09:04;;;;;;;6.28;1.73;;;;;;;;;;5017339;28;20068;-87
2024/03/31 09:11:31;;;;;;;7.60;1.25;;;;;;;;;;5027688;28;20034;-85
2024/03/31 09:13:57;;;;;;;9.15;2.00;;;;;;;;;;5024334;28;20030;-86
2024/03/31 09:16:24;;;;;;;6.10;1.85;;;;;;;;;;5031796;28;20025;-85
2024/03/31 09:18:50;;;;;;;4.75;1.38;;;;;;;;;;5033766;28;20051;-85
2024/03/31 09:21:16;;;;;;;4.07;1.33;;;;;;;;;;5031441;28;20033;-86
2024/03/31 09:23:42;;;;;;;1.90;0.63;;;;;;;;;;5025525;28;20033;-86
2024/03/31 09:26:08;;;;;;;0.85;0.47;;;;;;;;;;5028573;28;20071;-82
2024/03/31 09:28:36;;;;;;;0.85;0.45;;;;;;;;;;5030623;28;20493;-85
2024/03/31 09:31:03;;;;;;;2.65;1.30;;;;;;;;;;5020524;28;20109;-86
2024/03/31 09:33:33;;;;;;;2.65;0.73;;;;;;;;;;5028850;28;20033;-84
2024/03/31 09:35:59;;;;;;;3.63;1.20;;;;;;;;;;5019812;28;20033;-85
2024/03/31 09:38:25;;;;;;;3.88;1.45;;;;;;;;;;5031365;28;20038;-84
2024/03/31 09:40:51;;;;;;;4.13;0.85;;;;;;;;;;5022339;28;20054;-84
2024/03/31 09:43:19;;;;;;;3.60;1.10;;;;;;;;;;5021141;28;20080;-85
2024/03/31 09:45:45;;;;;;;1.63;0.70;;;;;;;;;;5026504;28;20085;-87
2024/03/31 09:48:16;;;;;;;4.15;0.95;;;;;;;;;;5024980;28;20057;-85
2024/03/31 09:50:43;;;;;;;7.22;1.92;;;;;;;;;;5034288;28;20991;-84
2024/03/31 09:53:15;;;;;;;2.25;0.73;;;;;;;;;;5028171;28;20391;-85
2024/03/31 09:55:41;;;;;;;3.10;0.30;;;;;;;;;;5010099;28;20486;-87
2024/03/31 09:58:09;;;;;;;2.60;1.02;;;;;;;;;;5012908;28;20037;-84
2024/03/31 10:00:35;;;;;;;5.07;1.17;;;;;;;;;;5030522;28;20039;-86
2024/03/31 10:03:03;;;;;;;2.80;0.77;;;;;;;;;;5029901;28;20029;-87
2024/03/31 10:05:29;;;;;;;3.13;1.25;;;;;;;;;;5007890;28;20099;-88
2024/03/31 10:07:55;;;;;;;3.25;1.10;;;;;;;;;;5008143;28;20390;-88
2024/03/31 10:10:22;;;;;;;8.93;0.22;;;;;;;;;;5012841;28;20029;-88
2024/03/31 10:12:49;;;;;;;1.25;0.80;;;;;;;;;;5013411;28;20045;-88
2024/03/31 10:15:16;;;;;;;18.50;0.95;;;;;;;;;;5027756;28;20056;-87
2024/03/31 10:17:42;;;;;;;14.15;2.15;;;;;;;;;;5009550;28;20353;-89
2024/03/31 10:20:09;;;;;;;4.18;0.95;;;;;;;;;;5003945;28;20036;-89
2024/03/31 10:22:36;;;;;;;6.47;0.47;;;;;;;;;;5013451;28;20554;-88
2024/03/31 10:25:02;;;;;;;13.88;1.35;;;;;;;;;;5005819;28;20030;-88
2024/03/31 10:27:29;;;;;;;3.58;1.67;;;;;;;;;;5011342;28;20050;-88
2024/03/31 10:29:56;;;;;;;1.38;0.50;;;;;;;;;;5010563;28;20033;-89
2024/03/31 10:32:22;;;;;;;4.53;1.67;;;;;;;;;;5023237;28;20037;-88
2024/03/31 10:34:49;;;;;;;4.20;0.43;;;;;;;;;;5032377;28;20025;-88
2024/03/31 10:37:16;;;;;;;33.55;2.60;;;;;;;;;;5008963;28;20033;-89
2024/03/31 10:39:44;;;;;;;1.20;0.43;;;;;;;;;;5008244;28;20036;-89
2024/03/31 10:42:10;;;;;;;1.30;0.50;;;;;;;;;;5002870;28;20102;-88
2024/03/31 10:44:38;;;;;;;1.98;0.77;;;;;;;;;;5008159;28;20686;-88
2024/03/31 10:47:05;;;;;;;6.53;0.65;;;;;;;;;;5000054;28;20206;-88
2024/03/31 10:49:35;;;;;;;1.27;0.82;;;;;;;;;;5008185;28;20041;-87
2024/03/31 10:52:02;;;;;;;1.73;0.47;;;;;;;;;;5010320;28;20041;-87
2024/03/31 10:54:35;;;;;;;2.67;1.10;;;;;;;;;;5009682;28;20025;-88
2024/03/31 10:57:02;;;;;;;7.95;1.58;;;;;;;;;;5009232;28;21308;-88
2024/03/31 10:59:32;;;;;;;4.88;1.17;;;;;;;;;;4994708;28;20570;-87
2024/03/31 11:01:58;;;;;;;4.88;0.77;;;;;;;;;;4993471;28;20044;-87
2024/03/31 11:04:25;;;;;;;8.02;1.42;;;;;;;;;;4987905;28;20046;-86
2024/03/31 11:06:56;;;;;;;8.00;2.28;;;;;;;;;;4992814;28;20088;-87
2024/03/31 11:09:22;;;;;;;2.20;0.88;;;;;;;;;;5009930;28;20041;-88
2024/03/31 11:11:49;;;;;;;13.93;1.83;;;;;;;;;;4996147;28;20045;-88
2024/03/31 11:14:15;;;;;;;1.02;0.25;;;;;;;;;;4984995;28;20777;-85
2024/03/31 11:16:41;;;;;;;0.70;0.47;;;;;;;;;;5013372;28;20113;-87
2024/03/31 11:19:08;;;;;;;9.50;1.55;;;;;;;;;;4991464;28;20113;-85
2024/03/31 11:21:36;;;;;;;1.98;0.98;;;;;;;;;;4990385;28;20041;-86
2024/03/31 11:24:03;;;;;;;16.88;2.38;;;;;;;;;;4992283;28;20036;-88
2024/03/31 11:26:30;;;;;;;2.72;1.40;;;;;;;;;;4989847;28;20030;-86
2024/03/31 11:28:57;;;;;;;2.42;1.05;;;;;;;;;;4989340;28;20503;-87
2024/03/31 11:31:24;;;;;;;5.32;1.58;;;;;;;;;;4992599;28;20036;-84
2024/03/31 11:33:50;;;;;;;1.65;0.20;;;;;;;;;;4987979;28;20044;-84
2024/03/31 11:36:16;;;;;;;7.20;0.77;;;;;;;;;;4991157;28;20352;-84
2024/03/31 11:38:43;;;;;;;1.98;0.60;;;;;;;;;;5023567;28;20028;-87
2024/03/31 11:41:09;;;;;;;0.50;0.40;;;;;;;;;;5001590;28;20033;-86
2024/03/31 11:43:36;;;;;;;3.55;1.48;;;;;;;;;;4977751;28;20475;-88
2024/03/31 11:46:02;;;;;;;3.70;1.10;;;;;;;;;;4993225;28;20037;-89
2024/03/31 11:48:28;;;;;;;2.67;1.10;;;;;;;;;;4987695;28;20452;-88
2024/03/31 11:50:54;;;;;;;17.60;2.05;;;;;;;;;;5013218;28;20042;-87
2024/03/31 11:53:21;;;;;;;6.22;1.83;;;;;;;;;;4986181;28;20121;-88
2024/03/31 11:55:47;;;;;;;3.53;1.17;;;;;;;;;;5012840;28;20080;-88
2024/03/31 11:58:13;;;;;;;7.72;0.60;;;;;;;;;;5017479;28;20034;-88
2024/03/31 12:00:48;;;;;;;2.25;0.38;;;;;;;;;;5025332;28;20026;-88
2024/03/31 12:03:14;;;;;;;3.15;1.60;;;;;;;;;;5029605;28;20046;-88
2024/03/31 12:05:40;;;;;;;1.65;0.40;;;;;;;;;;5031519;28;20039;-87
2024/03/31 12:08:06;;;;;;;3.65;0.35;;;;;;;;;;5029065;28;20034;-88
2024/03/31 12:10:32;;;;;;;15.57;1.88;;;;;;;;;;5016460;28;20641;-85
2024/03/31 12:12:58;;;;;;;1.63;0.63;;;;;;;;;;5036814;28;20037;-86
2024/03/31 12:15:25;;;;;;;8.75;1.85;;;;;;;;;;5030493;28;20107;-88
2024/03/31 12:18:00;;;;;;;3.10;1.30;;;;;;;;;;5026257;28;20042;-87
2024/03/31 12:20:26;;;;;;;1.50;0.68;;;;;;;;;;5021139;28;20033;-86
2024/03/31 12:22:53;;;;;;;3.03;1.00;;;;;;;;;;5030346;28;20040;-88
2024/03/31 12:25:19;;;;;;;2.45;0.75;;;;;;;;;;5021834;28;20477;-88
2024/03/31 12:27:46;;;;;;;1.98;0.38;;;;;;;;;;5030065;28;20096;-87
2024/03/31 12:30:12;;;;;;;3.95;1.40;;;;;;;;;;5023209;28;20068;-86
2024/03/31 12:32:38;;;;;;;1.52;0.40;;;;;;;;;;5028932;28;20047;-90
2024/03/31 12:35:05;;;;;;;1.23;0.35;;;;;;;;;;5021294;28;20038;-89
2024/03/31 12:37:33;;;;;;;2.63;0.65;;;;;;;;;;5023254;28;20037;-88
2024/03/31 12:40:20;;;;;;;7.97;1.27;;;;;;;;;;5026054;28;20042;-87
2024/03/31 12:42:48;;;;;;;7.97;1.48;;;;;;;;;;5028587;28;20033;-85
2024/03/31 12:45:21;;;;;;;2.40;0.43;;;;;;;;;;5038085;28;20021;-85
2024/03/31 12:47:52;;;;;;;4.15;1.52;;;;;;;;;;5034057;28;20037;-85
2024/03/31 12:50:21;;;;;;;1.70;0.40;;;;;;;;;;5014231;28;20037;-85
2024/03/31 12:53:26;;;;;;;0.75;0.63;;;;;;;;;;5017027;28;20057;-88
2024/03/31 12:58:59;;;;;;;0.93;0.40;;;;;;;;;;4990310;28;20450;-86
2024/03/31 13:01:25;;;;;;;5.95;1.08;;;;;;;;;;4977493;28;20038;-85
2024/03/31 13:03:51;;;;;;;10.88;0.28;;;;;;;;;;5014616;28;20073;-86
2024/03/31 13:06:17;;;;;;;2.13;0.77;;;;;;;;;;5025838;28;20041;-84
2024/03/31 13:08:50;;;;;;;9.85;1.77;;;;;;;;;;5033160;28;20413;-85
2024/03/31 13:11:21;;;;;;;2.58;1.58;;;;;;;;;;5040707;28;20041;-86
2024/03/31 13:13:47;;;;;;;0.68;0.43;;;;;;;;;;5025339;28;20144;-87
2024/03/31 13:16:21;;;;;;;0.93;0.68;;;;;;;;;;5027293;28;20067;-85
2024/03/31 13:18:47;;;;;;;2.13;0.88;;;;;;;;;;5031474;28;20018;-84
2024/03/31 13:21:13;;;;;;;6.10;0.77;;;;;;;;;;5035364;28;20074;-84
2024/03/31 13:23:39;;;;;;;1.35;0.60;;;;;;;;;;5031054;28;20471;-84
2024/03/31 13:26:13;;;;;;;2.78;0.20;;;;;;;;;;5028049;28;20149;-89
2024/03/31 13:28:42;;;;;;;7.30;1.17;;;;;;;;;;5024065;28;20037;-86
2024/03/31 13:31:31;;;;;;;1.65;0.55;;;;;;;;;;5001507;28;20044;-85
2024/03/31 13:34:43;;;;;;;8.25;1.77;;;;;;;;;;5030070;28;20033;-87
2024/03/31 13:43:55;;;;;;;;;;;;;;;;;;;;;
2024/03/31 13:46:32;;;;;;;2.67;0.30;;;;;;;;;;5028763;28;20168;-87
2024/03/31 13:48:59;;;;;;;14.15;1.20;;;;;;;;;;5013655;28;20033;-85
2024/03/31 13:51:28;;;;;;;0.15;0.03;;;;;;;;;;5026431;28;20627;-85
2024/03/31 13:53:54;;;;;;;2.67;0.50;;;;;;;;;;5014497;28;20095;-86
2024/03/31 13:56:20;;;;;;;1.17;0.68;;;;;;;;;;5025106;28;20052;-86
2024/03/31 13:58:46;;;;;;;6.93;0.70;;;;;;;;;;5034184;28;20045;-85
2024/03/31 14:01:12;;;;;;;1.13;0.22;;;;;;;;;;5029284;28;20509;-85
2024/03/31 14:03:38;;;;;;;2.05;0.20;;;;;;;;;;5032348;28;20033;-85
2024/03/31 14:06:04;;;;;;;1.63;0.60;;;;;;;;;;5030881;28;20030;-85
2024/03/31 14:08:30;;;;;;;4.78;0.82;;;;;;;;;;5030423;28;20072;-81
2024/03/31 14:10:56;;;;;;;0.85;0.10;;;;;;;;;;5033223;28;20048;-81
2024/03/31 14:13:23;;;;;;;0.30;0.08;;;;;;;;;;5025726;28;20390;-82
2024/03/31 14:15:49;;;;;;;0.93;0.30;;;;;;;;;;5014308;28;20026;-81
2024/03/31 14:18:15;;;;;;;0.08;0.00;;;;;;;;;;5014095;28;20452;-81
2024/03/31 14:20:42;;;;;;;1.08;0.20;;;;;;;;;;5014465;28;20033;-84
2024/03/31 14:23:08;;;;;;;7.05;0.52;;;;;;;;;;5021793;28;20059;-82
2024/03/31 14:25:34;;;;;;;2.35;0.25;;;;;;;;;;5034099;28;20472;-83
2024/03/31 14:28:01;;;;;;;0.15;0.15;;;;;;;;;;5029886;28;20483;-84
2024/03/31 14:30:28;;;;;;;0.00;0.00;;;;;;;;;;5025151;28;20044;-85
2024/03/31 14:32:55;;;;;;;1.20;0.10;;;;;;;;;;5038581;28;20482;-84
2024/03/31 14:35:21;;;;;;;0.75;0.68;;;;;;;;;;5033684;28;20057;-84
2024/03/31 14:37:47;;;;;;;0.55;0.32;;;;;;;;;;5026965;28;20037;-84
2024/03/31 14:40:13;;;;;;;0.63;0.10;;;;;;;;;;5025176;28;20049;-85
2024/03/31 14:42:39;;;;;;;0.20;0.10;;;;;;;;;;5018507;28;20055;-84
2024/03/31 14:45:05;;;;;;;0.50;0.10;;;;;;;;;;5029920;28;20954;-85
2024/03/31 14:47:31;;;;;;;5.40;1.25;;;;;;;;;;5014014;28;20045;-85
2024/03/31 14:49:57;;;;;;;1.02;0.40;;;;;;;;;;5035679;28;20033;-85